sensor_id;sensor_type;location;lat;lon;timestamp;temperature;humidity
20366;DHT22;10341;49.894;8.822;2023-09-19T00:01:17;17.30;99.90
20366;DHT22;10341;49.894;8.822;2023-09-19T00:06:39;17.20;99.90
20366;DHT22;10341;49.894;8.822;2023-09-19T00:11:59;17.20;99.90
20366;DHT22;10341;49.894;8.822;2023-09-19T00:17:18;17.10;99.90
20366;DHT22;10341;49.894;8.822;2023-09-19T00:22:41;17.20;99.90
20366;DHT22;10341;49.894;8.822;2023-09-19T00:28:04;17.20;99.90
20366;DHT22;10341;49.894;8.822;2023-09-19T00:33:25;17.30;99.90
20366;DHT22;10341;49.894;8.822;2023-09-19T00:38:45;17.40;99.90
20366;DHT22;10341;49.894;8.822;2023-09-19T00:44:06;17.40;99.90
20366;DHT22;10341;49.894;8.822;2023-09-19T00:49:25;17.40;99.90
20366;DHT22;10341;49.894;8.822;2023-09-19T00:54:47;17.30;99.90
20366;DHT22;10341;49.894;8.822;2023-09-19T01:00:08;17.40;99.90
20366;DHT22;10341;49.894;8.822;2023-09-19T01:05:31;17.40;99.90
20366;DHT22;10341;49.894;8.822;2023-09-19T01:10:58;17.40;99.90
20366;DHT22;10341;49.894;8.822;2023-09-19T01:16:32;17.50;99.90
20366;DHT22;10341;49.894;8.822;2023-09-19T01:22:16;17.50;99.90
20366;DHT22;10341;49.894;8.822;2023-09-19T01:33:11;17.50;99.90
20366;DHT22;10341;49.894;8.822;2023-09-19T01:38:30;17.60;99.90
20366;DHT22;10341;49.894;8.822;2023-09-19T01:43:52;17.60;99.90
20366;DHT22;10341;49.894;8.822;2023-09-19T01:55:06;17.70;99.90
20366;DHT22;10341;49.894;8.822;2023-09-19T02:00:29;17.70;99.90
20366;DHT22;10341;49.894;8.822;2023-09-19T02:05:53;17.70;99.90
20366;DHT22;10341;49.894;8.822;2023-09-19T02:11:13;17.60;99.90
20366;DHT22;10341;49.894;8.822;2023-09-19T02:16:33;17.60;99.90
20366;DHT22;10341;49.894;8.822;2023-09-19T02:21:52;17.60;99.90
20366;DHT22;10341;49.894;8.822;2023-09-19T02:27:12;17.50;99.90
20366;DHT22;10341;49.894;8.822;2023-09-19T02:32:33;17.50;99.90
20366;DHT22;10341;49.894;8.822;2023-09-19T02:37:56;17.50;99.90
20366;DHT22;10341;49.894;8.822;2023-09-19T02:43:15;17.40;99.90
20366;DHT22;10341;49.894;8.822;2023-09-19T02:48:35;17.30;99.90
20366;DHT22;10341;49.894;8.822;2023-09-19T02:53:55;17.20;99.90
20366;DHT22;10341;49.894;8.822;2023-09-19T02:59:14;17.00;99.90
20366;DHT22;10341;49.894;8.822;2023-09-19T03:04:35;16.90;99.90
20366;DHT22;10341;49.894;8.822;2023-09-19T03:09:55;16.80;99.90
20366;DHT22;10341;49.894;8.822;2023-09-19T03:15:15;16.70;99.90
20366;DHT22;10341;49.894;8.822;2023-09-19T03:20:38;16.60;99.90
20366;DHT22;10341;49.894;8.822;2023-09-19T03:25:58;16.50;99.90
20366;DHT22;10341;49.894;8.822;2023-09-19T03:31:18;16.40;99.90
20366;DHT22;10341;49.894;8.822;2023-09-19T03:36:39;16.30;99.90
20366;DHT22;10341;49.894;8.822;2023-09-19T03:42:01;16.20;99.90
20366;DHT22;10341;49.894;8.822;2023-09-19T03:47:22;16.10;99.90
20366;DHT22;10341;49.894;8.822;2023-09-19T03:52:43;16.00;99.90
20366;DHT22;10341;49.894;8.822;2023-09-19T03:58:02;15.90;99.90
20366;DHT22;10341;49.894;8.822;2023-09-19T04:03:24;15.90;99.90
20366;DHT22;10341;49.894;8.822;2023-09-19T04:08:44;15.90;99.90
20366;DHT22;10341;49.894;8.822;2023-09-19T04:14:04;15.80;99.90
20366;DHT22;10341;49.894;8.822;2023-09-19T04:19:24;15.80;99.90
20366;DHT22;10341;49.894;8.822;2023-09-19T04:24:44;15.70;99.90
20366;DHT22;10341;49.894;8.822;2023-09-19T04:30:06;15.60;99.90
20366;DHT22;10341;49.894;8.822;2023-09-19T04:35:29;15.60;99.90
20366;DHT22;10341;49.894;8.822;2023-09-19T04:40:57;15.60;99.90
20366;DHT22;10341;49.894;8.822;2023-09-19T04:46:18;15.60;99.90
20366;DHT22;10341;49.894;8.822;2023-09-19T04:51:37;15.70;99.90
20366;DHT22;10341;49.894;8.822;2023-09-19T04:56:57;15.80;99.90
20366;DHT22;10341;49.894;8.822;2023-09-19T05:02:17;15.90;99.90
20366;DHT22;10341;49.894;8.822;2023-09-19T05:07:39;16.00;99.90
20366;DHT22;10341;49.894;8.822;2023-09-19T05:12:58;16.00;99.90
20366;DHT22;10341;49.894;8.822;2023-09-19T05:18:17;16.00;99.90
20366;DHT22;10341;49.894;8.822;2023-09-19T05:23:37;15.90;99.90
20366;DHT22;10341;49.894;8.822;2023-09-19T05:28:56;15.90;99.90
20366;DHT22;10341;49.894;8.822;2023-09-19T05:34:16;15.90;99.90
20366;DHT22;10341;49.894;8.822;2023-09-19T05:39:36;16.00;99.90
20366;DHT22;10341;49.894;8.822;2023-09-19T05:44:56;16.00;99.90
20366;DHT22;10341;49.894;8.822;2023-09-19T05:50:15;16.10;99.90
20366;DHT22;10341;49.894;8.822;2023-09-19T05:55:36;16.10;99.90
20366;DHT22;10341;49.894;8.822;2023-09-19T06:00:55;16.10;99.90
20366;DHT22;10341;49.894;8.822;2023-09-19T06:06:15;16.20;99.90
20366;DHT22;10341;49.894;8.822;2023-09-19T06:11:35;16.30;99.90
20366;DHT22;10341;49.894;8.822;2023-09-19T06:16:55;16.30;99.90
20366;DHT22;10341;49.894;8.822;2023-09-19T06:22:16;16.50;99.90
20366;DHT22;10341;49.894;8.822;2023-09-19T06:27:38;16.60;99.90
20366;DHT22;10341;49.894;8.822;2023-09-19T06:33:01;16.70;99.90
20366;DHT22;10341;49.894;8.822;2023-09-19T06:38:23;16.80;99.90
20366;DHT22;10341;49.894;8.822;2023-09-19T06:43:43;17.00;99.90
20366;DHT22;10341;49.894;8.822;2023-09-19T06:49:03;17.20;99.90
20366;DHT22;10341;49.894;8.822;2023-09-19T06:54:25;17.40;99.90
20366;DHT22;10341;49.894;8.822;2023-09-19T06:59:45;17.60;99.90
20366;DHT22;10341;49.894;8.822;2023-09-19T07:05:05;17.60;99.90
20366;DHT22;10341;49.894;8.822;2023-09-19T07:10:25;17.60;99.90
20366;DHT22;10341;49.894;8.822;2023-09-19T07:15:46;17.70;99.90
20366;DHT22;10341;49.894;8.822;2023-09-19T07:21:05;17.80;99.90
20366;DHT22;10341;49.894;8.822;2023-09-19T07:26:25;17.90;99.90
20366;DHT22;10341;49.894;8.822;2023-09-19T07:31:45;17.90;99.90
20366;DHT22;10341;49.894;8.822;2023-09-19T07:37:06;18.20;99.90
20366;DHT22;10341;49.894;8.822;2023-09-19T07:42:27;18.30;99.90
20366;DHT22;10341;49.894;8.822;2023-09-19T07:47:47;18.50;99.90
20366;DHT22;10341;49.894;8.822;2023-09-19T07:53:07;18.70;99.90
20366;DHT22;10341;49.894;8.822;2023-09-19T07:58:27;18.80;99.90
20366;DHT22;10341;49.894;8.822;2023-09-19T08:03:47;18.80;99.90
20366;DHT22;10341;49.894;8.822;2023-09-19T08:09:07;19.10;99.90
20366;DHT22;10341;49.894;8.822;2023-09-19T08:14:28;19.10;99.90
20366;DHT22;10341;49.894;8.822;2023-09-19T08:19:49;19.40;99.90
20366;DHT22;10341;49.894;8.822;2023-09-19T08:25:12;19.80;99.90
20366;DHT22;10341;49.894;8.822;2023-09-19T08:30:32;20.30;99.90
20366;DHT22;10341;49.894;8.822;2023-09-19T08:35:55;20.60;99.90
20366;DHT22;10341;49.894;8.822;2023-09-19T08:41:17;21.30;99.90
20366;DHT22;10341;49.894;8.822;2023-09-19T08:46:37;21.10;99.90
20366;DHT22;10341;49.894;8.822;2023-09-19T08:52:20;21.20;99.90
20366;DHT22;10341;49.894;8.822;2023-09-19T08:57:41;21.70;99.90
20366;DHT22;10341;49.894;8.822;2023-09-19T09:03:03;22.90;99.90
20366;DHT22;10341;49.894;8.822;2023-09-19T09:08:25;23.20;99.90
20366;DHT22;10341;49.894;8.822;2023-09-19T09:13:45;23.00;99.90
20366;DHT22;10341;49.894;8.822;2023-09-19T09:19:05;22.90;99.90
20366;DHT22;10341;49.894;8.822;2023-09-19T09:24:28;24.30;99.90
20366;DHT22;10341;49.894;8.822;2023-09-19T09:29:49;25.70;99.30
20366;DHT22;10341;49.894;8.822;2023-09-19T09:35:09;25.60;97.70
20366;DHT22;10341;49.894;8.822;2023-09-19T09:40:46;24.20;99.50
20366;DHT22;10341;49.894;8.822;2023-09-19T09:46:17;23.50;99.90
20366;DHT22;10341;49.894;8.822;2023-09-19T09:52:01;24.00;99.10
20366;DHT22;10341;49.894;8.822;2023-09-19T09:57:25;24.60;98.10
20366;DHT22;10341;49.894;8.822;2023-09-19T10:02:45;26.00;96.40
20366;DHT22;10341;49.894;8.822;2023-09-19T10:08:12;24.60;97.20
20366;DHT22;10341;49.894;8.822;2023-09-19T10:13:34;25.50;95.30
20366;DHT22;10341;49.894;8.822;2023-09-19T10:18:59;26.80;94.10
20366;DHT22;10341;49.894;8.822;2023-09-19T10:24:22;27.50;92.20
20366;DHT22;10341;49.894;8.822;2023-09-19T10:29:44;29.20;89.10
20366;DHT22;10341;49.894;8.822;2023-09-19T10:35:07;29.80;84.30
20366;DHT22;10341;49.894;8.822;2023-09-19T10:40:27;29.80;78.90
20366;DHT22;10341;49.894;8.822;2023-09-19T10:45:50;29.90;79.50
20366;DHT22;10341;49.894;8.822;2023-09-19T10:51:16;29.50;78.30
20366;DHT22;10341;49.894;8.822;2023-09-19T10:56:43;29.60;78.60
20366;DHT22;10341;49.894;8.822;2023-09-19T11:02:26;30.30;74.60
20366;DHT22;10341;49.894;8.822;2023-09-19T11:07:57;29.50;73.20
20366;DHT22;10341;49.894;8.822;2023-09-19T11:13:24;28.40;75.60
20366;DHT22;10341;49.894;8.822;2023-09-19T11:18:54;29.70;71.90
20366;DHT22;10341;49.894;8.822;2023-09-19T11:29:41;29.50;71.20
20366;DHT22;10341;49.894;8.822;2023-09-19T11:35:07;29.50;72.50
20366;DHT22;10341;49.894;8.822;2023-09-19T11:40:28;29.60;71.70
20366;DHT22;10341;49.894;8.822;2023-09-19T11:51:23;30.70;71.70
20366;DHT22;10341;49.894;8.822;2023-09-19T11:56:48;30.00;71.10
20366;DHT22;10341;49.894;8.822;2023-09-19T12:02:16;29.50;70.70
20366;DHT22;10341;49.894;8.822;2023-09-19T12:07:46;30.10;70.00
20366;DHT22;10341;49.894;8.822;2023-09-19T12:13:07;30.20;70.60
20366;DHT22;10341;49.894;8.822;2023-09-19T12:18:31;29.00;71.40
20366;DHT22;10341;49.894;8.822;2023-09-19T12:24:07;27.60;72.50
20366;DHT22;10341;49.894;8.822;2023-09-19T12:29:42;27.40;74.10
20366;DHT22;10341;49.894;8.822;2023-09-19T12:35:02;28.50;70.70
20366;DHT22;10341;49.894;8.822;2023-09-19T12:40:26;28.00;72.30
20366;DHT22;10341;49.894;8.822;2023-09-19T12:45:48;27.00;72.10
20366;DHT22;10341;49.894;8.822;2023-09-19T12:51:10;27.30;75.60
20366;DHT22;10341;49.894;8.822;2023-09-19T12:56:39;28.60;73.30
20366;DHT22;10341;49.894;8.822;2023-09-19T13:02:06;27.90;73.70
20366;DHT22;10341;49.894;8.822;2023-09-19T13:07:43;27.40;74.30
20366;DHT22;10341;49.894;8.822;2023-09-19T13:13:22;26.60;76.40
20366;DHT22;10341;49.894;8.822;2023-09-19T13:18:47;26.40;76.10
20366;DHT22;10341;49.894;8.822;2023-09-19T13:24:21;25.80;76.80
20366;DHT22;10341;49.894;8.822;2023-09-19T13:29:42;25.50;82.10
20366;DHT22;10341;49.894;8.822;2023-09-19T13:35:02;25.80;80.00
20366;DHT22;10341;49.894;8.822;2023-09-19T13:40:22;26.10;79.50
20366;DHT22;10341;49.894;8.822;2023-09-19T13:45:41;25.90;78.90
20366;DHT22;10341;49.894;8.822;2023-09-19T13:51:03;25.20;78.80
20366;DHT22;10341;49.894;8.822;2023-09-19T13:56:23;24.80;80.60
20366;DHT22;10341;49.894;8.822;2023-09-19T14:01:43;24.10;81.60
20366;DHT22;10341;49.894;8.822;2023-09-19T14:07:03;24.30;82.50
20366;DHT22;10341;49.894;8.822;2023-09-19T14:12:23;24.70;84.40
20366;DHT22;10341;49.894;8.822;2023-09-19T14:17:42;24.90;82.50
20366;DHT22;10341;49.894;8.822;2023-09-19T14:23:04;23.80;85.00
20366;DHT22;10341;49.894;8.822;2023-09-19T14:28:24;23.40;87.00
20366;DHT22;10341;49.894;8.822;2023-09-19T14:33:44;23.90;87.70
20366;DHT22;10341;49.894;8.822;2023-09-19T14:39:03;24.80;87.40
20366;DHT22;10341;49.894;8.822;2023-09-19T14:44:23;24.50;86.20
20366;DHT22;10341;49.894;8.822;2023-09-19T14:49:42;24.20;86.20
20366;DHT22;10341;49.894;8.822;2023-09-19T14:55:02;23.70;89.60
20366;DHT22;10341;49.894;8.822;2023-09-19T15:00:24;23.60;90.70
20366;DHT22;10341;49.894;8.822;2023-09-19T15:05:43;23.80;91.80
20366;DHT22;10341;49.894;8.822;2023-09-19T15:11:06;23.50;91.50
20366;DHT22;10341;49.894;8.822;2023-09-19T15:16:26;23.40;91.90
20366;DHT22;10341;49.894;8.822;2023-09-19T15:21:46;23.30;92.40
20366;DHT22;10341;49.894;8.822;2023-09-19T15:27:06;23.20;92.70
20366;DHT22;10341;49.894;8.822;2023-09-19T15:32:26;23.40;93.20
20366;DHT22;10341;49.894;8.822;2023-09-19T15:37:47;24.00;91.60
20366;DHT22;10341;49.894;8.822;2023-09-19T15:43:06;23.90;91.90
20366;DHT22;10341;49.894;8.822;2023-09-19T15:48:25;24.40;90.90
20366;DHT22;10341;49.894;8.822;2023-09-19T15:53:47;24.20;91.90
20366;DHT22;10341;49.894;8.822;2023-09-19T15:59:08;24.10;91.80
20366;DHT22;10341;49.894;8.822;2023-09-19T16:04:29;23.50;93.30
20366;DHT22;10341;49.894;8.822;2023-09-19T16:09:50;23.10;94.60
20366;DHT22;10341;49.894;8.822;2023-09-19T16:15:10;22.50;95.00
20366;DHT22;10341;49.894;8.822;2023-09-19T16:20:34;22.30;95.90
20366;DHT22;10341;49.894;8.822;2023-09-19T16:26:09;21.90;96.60
20366;DHT22;10341;49.894;8.822;2023-09-19T16:31:30;21.80;97.80
20366;DHT22;10341;49.894;8.822;2023-09-19T16:36:50;21.70;97.90
20366;DHT22;10341;49.894;8.822;2023-09-19T16:42:10;21.70;98.90
20366;DHT22;10341;49.894;8.822;2023-09-19T16:47:31;21.70;99.50
20366;DHT22;10341;49.894;8.822;2023-09-19T16:52:51;21.50;99.80
20366;DHT22;10341;49.894;8.822;2023-09-19T16:58:11;21.20;99.90
20366;DHT22;10341;49.894;8.822;2023-09-19T17:03:30;21.10;99.90
20366;DHT22;10341;49.894;8.822;2023-09-19T17:08:50;20.80;99.90
20366;DHT22;10341;49.894;8.822;2023-09-19T17:14:09;20.70;99.90
20366;DHT22;10341;49.894;8.822;2023-09-19T17:19:29;20.50;99.90
20366;DHT22;10341;49.894;8.822;2023-09-19T17:24:49;20.40;99.90
20366;DHT22;10341;49.894;8.822;2023-09-19T17:30:10;20.20;99.90
20366;DHT22;10341;49.894;8.822;2023-09-19T17:35:35;20.10;99.90
20366;DHT22;10341;49.894;8.822;2023-09-19T17:40:54;19.90;99.90
20366;DHT22;10341;49.894;8.822;2023-09-19T17:46:14;19.80;99.90
20366;DHT22;10341;49.894;8.822;2023-09-19T17:51:34;19.60;99.90
20366;DHT22;10341;49.894;8.822;2023-09-19T17:56:53;19.60;99.90
20366;DHT22;10341;49.894;8.822;2023-09-19T18:02:13;19.50;99.90
20366;DHT22;10341;49.894;8.822;2023-09-19T18:07:33;19.40;99.90
20366;DHT22;10341;49.894;8.822;2023-09-19T18:12:53;19.40;99.90
20366;DHT22;10341;49.894;8.822;2023-09-19T18:18:12;19.30;99.90
20366;DHT22;10341;49.894;8.822;2023-09-19T18:23:32;19.30;99.90
20366;DHT22;10341;49.894;8.822;2023-09-19T18:28:51;19.20;99.90
20366;DHT22;10341;49.894;8.822;2023-09-19T18:34:11;19.20;99.90
20366;DHT22;10341;49.894;8.822;2023-09-19T18:39:32;19.10;99.90
20366;DHT22;10341;49.894;8.822;2023-09-19T18:44:53;19.00;99.90
20366;DHT22;10341;49.894;8.822;2023-09-19T18:50:13;19.00;99.90
20366;DHT22;10341;49.894;8.822;2023-09-19T18:55:32;18.90;99.90
20366;DHT22;10341;49.894;8.822;2023-09-19T19:00:58;18.90;99.90
20366;DHT22;10341;49.894;8.822;2023-09-19T19:06:19;18.70;99.90
20366;DHT22;10341;49.894;8.822;2023-09-19T19:11:41;18.50;99.90
20366;DHT22;10341;49.894;8.822;2023-09-19T19:17:01;18.30;99.90
20366;DHT22;10341;49.894;8.822;2023-09-19T19:22:20;18.20;99.90
20366;DHT22;10341;49.894;8.822;2023-09-19T19:27:40;18.10;99.90
20366;DHT22;10341;49.894;8.822;2023-09-19T19:33:00;18.00;99.90
20366;DHT22;10341;49.894;8.822;2023-09-19T19:38:19;17.90;99.90
20366;DHT22;10341;49.894;8.822;2023-09-19T19:43:42;17.80;99.90
20366;DHT22;10341;49.894;8.822;2023-09-19T19:49:02;17.70;99.90
20366;DHT22;10341;49.894;8.822;2023-09-19T19:54:23;17.70;99.90
20366;DHT22;10341;49.894;8.822;2023-09-19T19:59:42;17.60;99.90
20366;DHT22;10341;49.894;8.822;2023-09-19T20:05:02;17.60;99.90
20366;DHT22;10341;49.894;8.822;2023-09-19T20:10:21;17.50;99.90
20366;DHT22;10341;49.894;8.822;2023-09-19T20:15:41;17.40;99.90
20366;DHT22;10341;49.894;8.822;2023-09-19T20:21:05;17.40;99.90
20366;DHT22;10341;49.894;8.822;2023-09-19T20:26:29;17.30;99.90
20366;DHT22;10341;49.894;8.822;2023-09-19T20:31:49;17.40;99.90
20366;DHT22;10341;49.894;8.822;2023-09-19T20:37:10;17.40;99.90
20366;DHT22;10341;49.894;8.822;2023-09-19T20:42:30;17.40;99.90
20366;DHT22;10341;49.894;8.822;2023-09-19T20:47:50;17.40;99.90
20366;DHT22;10341;49.894;8.822;2023-09-19T20:53:10;17.30;99.90
20366;DHT22;10341;49.894;8.822;2023-09-19T20:58:30;17.30;99.90
20366;DHT22;10341;49.894;8.822;2023-09-19T21:03:49;17.30;99.90
20366;DHT22;10341;49.894;8.822;2023-09-19T21:09:09;17.30;99.90
20366;DHT22;10341;49.894;8.822;2023-09-19T21:14:32;17.20;99.90
20366;DHT22;10341;49.894;8.822;2023-09-19T21:19:52;17.10;99.90
20366;DHT22;10341;49.894;8.822;2023-09-19T21:25:12;17.20;99.90
20366;DHT22;10341;49.894;8.822;2023-09-19T21:30:31;17.10;99.90
20366;DHT22;10341;49.894;8.822;2023-09-19T21:35:51;17.10;99.90
20366;DHT22;10341;49.894;8.822;2023-09-19T21:41:14;17.20;99.90
20366;DHT22;10341;49.894;8.822;2023-09-19T21:46:36;17.20;99.90
20366;DHT22;10341;49.894;8.822;2023-09-19T21:51:56;17.20;99.90
20366;DHT22;10341;49.894;8.822;2023-09-19T21:57:15;17.20;99.90
20366;DHT22;10341;49.894;8.822;2023-09-19T22:02:35;17.10;99.90
20366;DHT22;10341;49.894;8.822;2023-09-19T22:07:54;17.10;99.90
20366;DHT22;10341;49.894;8.822;2023-09-19T22:13:16;17.10;99.90
20366;DHT22;10341;49.894;8.822;2023-09-19T22:18:41;17.10;99.90
20366;DHT22;10341;49.894;8.822;2023-09-19T22:24:01;17.10;99.90
20366;DHT22;10341;49.894;8.822;2023-09-19T22:29:21;17.00;99.90
20366;DHT22;10341;49.894;8.822;2023-09-19T22:34:42;16.90;99.90
20366;DHT22;10341;49.894;8.822;2023-09-19T22:40:02;16.90;99.90
20366;DHT22;10341;49.894;8.822;2023-09-19T22:45:31;17.00;99.90
20366;DHT22;10341;49.894;8.822;2023-09-19T22:50:51;17.20;99.90
20366;DHT22;10341;49.894;8.822;2023-09-19T22:56:17;17.40;99.90
20366;DHT22;10341;49.894;8.822;2023-09-19T23:01:38;17.70;99.90
20366;DHT22;10341;49.894;8.822;2023-09-19T23:07:00;17.80;99.90
20366;DHT22;10341;49.894;8.822;2023-09-19T23:12:24;18.10;99.90
20366;DHT22;10341;49.894;8.822;2023-09-19T23:17:44;18.10;99.90
20366;DHT22;10341;49.894;8.822;2023-09-19T23:23:03;18.20;99.90
20366;DHT22;10341;49.894;8.822;2023-09-19T23:28:23;18.20;99.90
20366;DHT22;10341;49.894;8.822;2023-09-19T23:33:43;18.20;99.90
20366;DHT22;10341;49.894;8.822;2023-09-19T23:39:02;18.20;99.90
20366;DHT22;10341;49.894;8.822;2023-09-19T23:44:22;18.30;99.90
20366;DHT22;10341;49.894;8.822;2023-09-19T23:49:43;18.30;99.90
20366;DHT22;10341;49.894;8.822;2023-09-19T23:55:04;18.20;99.90
